Time;durP1;ratioP1;P1;durP2;ratioP2;P2;SDS_P1;SDS_P2;PMS_P1;PMS_P2;Temp;Humidity;BMP_temperature;BMP_pressure;BME280_temperature;BME280_humidity;BME280_pressure;Samples;Min_cycle;Max_cycle;Signal;HPM_P1;HPM_P2
2021/12/25 00:02:05;;;;;;;2.67;0.70;;;;;;;;;;5023130;28;20018;-71
2021/12/25 00:04:31;;;;;;;4.53;0.60;;;;;;;;;;5040186;28;20073;-71
2021/12/25 00:06:56;;;;;;;2.38;0.70;;;;;;;;;;5040590;28;20014;-71
2021/12/25 00:09:22;;;;;;;1.23;0.40;;;;;;;;;;5040210;28;20084;-71
2021/12/25 00:11:47;;;;;;;1.58;0.68;;;;;;;;;;5022804;28;20045;-71
2021/12/25 00:14:13;;;;;;;2.17;0.55;;;;;;;;;;5040029;28;20014;-71
2021/12/25 00:16:39;;;;;;;0.93;0.47;;;;;;;;;;5039958;28;20014;-71
2021/12/25 00:19:06;;;;;;;2.30;0.70;;;;;;;;;;5039976;28;20073;-71
2021/12/25 00:21:32;;;;;;;0.40;0.40;;;;;;;;;;5040084;28;20013;-71
2021/12/25 00:23:57;;;;;;;2.83;0.55;;;;;;;;;;5039800;28;20025;-71
2021/12/25 00:26:41;;;;;;;2.65;0.52;;;;;;;;;;5022413;28;20021;-71
2021/12/25 00:29:32;;;;;;;2.20;0.50;;;;;;;;;;5039821;28;20029;-71
2021/12/25 00:32:09;;;;;;;2.65;0.95;;;;;;;;;;5039487;28;20033;-71
2021/12/25 00:34:35;;;;;;;2.17;0.50;;;;;;;;;;5039199;28;20005;-70
2021/12/25 00:37:01;;;;;;;2.63;0.75;;;;;;;;;;5040075;28;20037;-71
2021/12/25 00:39:29;;;;;;;2.47;0.60;;;;;;;;;;5022379;28;20009;-71
2021/12/25 00:41:55;;;;;;;2.25;0.88;;;;;;;;;;5039485;28;20018;-71
2021/12/25 00:44:20;;;;;;;1.80;0.40;;;;;;;;;;5022374;28;20032;-71
2021/12/25 00:46:46;;;;;;;3.33;0.70;;;;;;;;;;5039611;28;20025;-71
2021/12/25 00:49:11;;;;;;;3.10;0.57;;;;;;;;;;5039191;28;20018;-71
2021/12/25 00:51:37;;;;;;;1.48;0.60;;;;;;;;;;5039287;28;20010;-71
2021/12/25 00:54:03;;;;;;;2.10;0.70;;;;;;;;;;5022281;28;20147;-71
2021/12/25 00:56:28;;;;;;;1.30;0.70;;;;;;;;;;5022595;28;20082;-71
2021/12/25 00:58:53;;;;;;;3.03;0.63;;;;;;;;;;5039319;28;20061;-71
2021/12/25 01:01:19;;;;;;;1.90;0.57;;;;;;;;;;5021683;28;20033;-70
2021/12/25 01:03:44;;;;;;;2.08;1.05;;;;;;;;;;5038480;28;20014;-70
2021/12/25 01:06:09;;;;;;;2.10;0.50;;;;;;;;;;5038793;28;20014;-71
2021/12/25 01:08:35;;;;;;;0.73;0.50;;;;;;;;;;5021703;28;20288;-71
2021/12/25 01:11:00;;;;;;;1.90;0.70;;;;;;;;;;5038822;28;20014;-71
2021/12/25 01:13:30;;;;;;;3.85;0.65;;;;;;;;;;5038921;28;20010;-70
2021/12/25 01:39:14;;;;;;;1.33;0.65;;;;;;;;;;5038585;28;20022;-70
2021/12/25 01:42:01;;;;;;;1.52;0.52;;;;;;;;;;5021094;28;20010;-71
2021/12/25 01:49:58;;;;;;;1.65;0.57;;;;;;;;;;5038651;28;20069;-70
2021/12/25 01:52:29;;;;;;;5.22;0.70;;;;;;;;;;5037871;28;20065;-70
2021/12/25 01:54:58;;;;;;;3.15;0.70;;;;;;;;;;5038708;28;20040;-70
2021/12/25 01:57:24;;;;;;;2.75;0.73;;;;;;;;;;5038385;28;20010;-71
2021/12/25 01:59:50;;;;;;;2.15;0.77;;;;;;;;;;5038151;28;20014;-70
2021/12/25 02:02:16;;;;;;;2.78;0.50;;;;;;;;;;5037572;28;20044;-70
2021/12/25 02:04:42;;;;;;;2.28;0.60;;;;;;;;;;5020996;28;20017;-70
2021/12/25 02:07:08;;;;;;;0.82;0.40;;;;;;;;;;5038265;28;20010;-71
2021/12/25 02:09:33;;;;;;;3.40;1.00;;;;;;;;;;5037876;28;20072;-71
2021/12/25 02:11:59;;;;;;;2.30;0.30;;;;;;;;;;5038161;28;20046;-71
2021/12/25 02:14:25;;;;;;;0.65;0.60;;;;;;;;;;5037948;28;20013;-70
2021/12/25 02:16:59;;;;;;;4.25;0.75;;;;;;;;;;5037824;28;20009;-70
2021/12/25 02:19:37;;;;;;;3.38;0.60;;;;;;;;;;5020750;28;20010;-71
2021/12/25 02:22:03;;;;;;;2.47;0.40;;;;;;;;;;5020431;28;20022;-70
2021/12/25 02:24:29;;;;;;;1.65;0.77;;;;;;;;;;5020728;28;20034;-71
2021/12/25 02:26:55;;;;;;;2.70;0.60;;;;;;;;;;5037530;28;20014;-70
2021/12/25 02:29:21;;;;;;;1.92;0.65;;;;;;;;;;5037636;28;20010;-71
2021/12/25 02:31:46;;;;;;;0.50;0.40;;;;;;;;;;5037349;28;20093;-70
2021/12/25 02:34:12;;;;;;;1.58;0.40;;;;;;;;;;5037634;28;20018;-70
2021/12/25 02:36:38;;;;;;;2.78;0.68;;;;;;;;;;5020240;28;20038;-70
2021/12/25 02:39:03;;;;;;;2.80;0.60;;;;;;;;;;5020490;28;20018;-70
2021/12/25 02:41:29;;;;;;;0.40;0.30;;;;;;;;;;5037451;28;20014;-71
2021/12/25 02:43:54;;;;;;;1.38;0.57;;;;;;;;;;5037670;28;20073;-71
2021/12/25 02:46:19;;;;;;;0.85;0.40;;;;;;;;;;5037627;28;20041;-71
2021/12/25 02:48:45;;;;;;;4.70;1.10;;;;;;;;;;5037776;28;20029;-71
2021/12/25 02:51:12;;;;;;;0.90;0.60;;;;;;;;;;5020541;28;20058;-71
2021/12/25 02:53:38;;;;;;;2.45;0.55;;;;;;;;;;5037967;28;20081;-71
2021/12/25 02:56:05;;;;;;;3.15;0.60;;;;;;;;;;5037628;28;20017;-71
2021/12/25 02:58:30;;;;;;;2.15;0.50;;;;;;;;;;5041425;28;20293;-71
2021/12/25 03:01:12;;;;;;;3.03;0.50;;;;;;;;;;5041764;28;20029;-70
2021/12/25 03:03:39;;;;;;;2.50;0.60;;;;;;;;;;5041619;28;20026;-71
2021/12/25 03:06:06;;;;;;;2.53;0.63;;;;;;;;;;5041440;28;20006;-71
2021/12/25 03:08:32;;;;;;;1.13;0.50;;;;;;;;;;5041596;28;20029;-70
2021/12/25 03:10:59;;;;;;;3.83;1.13;;;;;;;;;;5041633;28;20014;-70
2021/12/25 03:13:34;;;;;;;1.10;0.50;;;;;;;;;;5041065;28;20018;-70
2021/12/25 03:16:02;;;;;;;0.98;0.50;;;;;;;;;;5041400;28;20041;-71
2021/12/25 03:18:35;;;;;;;1.73;0.80;;;;;;;;;;5041111;28;20037;-71
2021/12/25 03:21:03;;;;;;;0.50;0.40;;;;;;;;;;5040968;28;20028;-71
2021/12/25 03:23:31;;;;;;;2.17;0.50;;;;;;;;;;5040998;28;20030;-71
2021/12/25 03:25:58;;;;;;;1.50;0.40;;;;;;;;;;5041308;28;20030;-71
2021/12/25 03:28:31;;;;;;;1.48;0.50;;;;;;;;;;5040930;28;20065;-71
2021/12/25 03:31:04;;;;;;;2.30;0.55;;;;;;;;;;5041074;28;20021;-71
2021/12/25 03:33:30;;;;;;;5.13;0.70;;;;;;;;;;5023934;28;20049;-71
2021/12/25 03:35:56;;;;;;;2.08;0.50;;;;;;;;;;5023810;28;20097;-71
2021/12/25 03:38:22;;;;;;;0.82;0.50;;;;;;;;;;5040891;28;20037;-71
2021/12/25 03:40:50;;;;;;;0.40;0.40;;;;;;;;;;5040650;28;20018;-71
2021/12/25 03:43:17;;;;;;;1.73;0.60;;;;;;;;;;5040906;28;20033;-70
2021/12/25 03:45:44;;;;;;;3.17;0.55;;;;;;;;;;5041028;28;20018;-70
2021/12/25 03:59:10;;;;;;;1.90;0.55;;;;;;;;;;5040249;28;20032;-70
2021/12/25 04:06:27;;;;;;;2.53;0.57;;;;;;;;;;5040071;28;20024;-70
2021/12/25 04:08:53;;;;;;;1.10;0.40;;;;;;;;;;5022750;28;20022;-70
2021/12/25 04:11:28;;;;;;;2.15;0.70;;;;;;;;;;5023537;28;20010;-70
2021/12/25 04:13:54;;;;;;;1.92;0.65;;;;;;;;;;5023255;28;20014;-70
2021/12/25 04:16:20;;;;;;;6.55;0.68;;;;;;;;;;5040406;28;20014;-70
2021/12/25 04:18:45;;;;;;;0.47;0.47;;;;;;;;;;5040109;28;20029;-70
2021/12/25 04:21:11;;;;;;;1.15;0.30;;;;;;;;;;5039654;28;20014;-70
2021/12/25 04:23:40;;;;;;;2.53;0.50;;;;;;;;;;5022550;28;20061;-71
2021/12/25 04:26:05;;;;;;;1.00;0.60;;;;;;;;;;5039639;28;20025;-70
2021/12/25 04:28:43;;;;;;;1.90;0.60;;;;;;;;;;5040018;28;20033;-70
2021/12/25 04:31:27;;;;;;;2.08;0.60;;;;;;;;;;5039658;28;20034;-71
2021/12/25 05:04:00;;;;;;;;;;;;;;;;;;5039926;28;20040;-70
2021/12/25 05:06:25;;;;;;;0.40;0.40;;;;;;;;;;5039483;28;19909;-70
2021/12/25 05:08:51;;;;;;;2.58;0.70;;;;;;;;;;5022207;28;20026;-71
2021/12/25 05:11:17;;;;;;;4.63;0.90;;;;;;;;;;5039028;28;20010;-70
2021/12/25 05:13:43;;;;;;;3.05;0.40;;;;;;;;;;5021925;28;20017;-70
2021/12/25 05:16:09;;;;;;;1.88;0.60;;;;;;;;;;5021856;28;20002;-70
2021/12/25 05:18:35;;;;;;;0.65;0.50;;;;;;;;;;5038576;28;20006;-70
2021/12/25 05:21:00;;;;;;;2.55;0.60;;;;;;;;;;5038843;28;20068;-70
2021/12/25 05:23:25;;;;;;;0.77;0.50;;;;;;;;;;5021484;28;20108;-70
2021/12/25 05:25:51;;;;;;;0.73;0.57;;;;;;;;;;5038604;28;20029;-70
2021/12/25 05:28:24;;;;;;;0.77;0.50;;;;;;;;;;5038653;28;20078;-70
2021/12/25 05:30:50;;;;;;;1.70;0.60;;;;;;;;;;5038395;28;20038;-70
2021/12/25 05:33:16;;;;;;;1.33;0.73;;;;;;;;;;5038772;28;20093;-70
2021/12/25 05:35:41;;;;;;;1.42;0.60;;;;;;;;;;5021345;28;20010;-70
2021/12/25 05:38:13;;;;;;;0.73;0.50;;;;;;;;;;5038588;28;20022;-70
2021/12/25 05:40:38;;;;;;;0.60;0.50;;;;;;;;;;5038359;28;20045;-70
2021/12/25 05:43:04;;;;;;;1.52;0.60;;;;;;;;;;5038303;28;20021;-71
2021/12/25 05:45:29;;;;;;;2.65;0.77;;;;;;;;;;5038501;28;20022;-70
2021/12/25 05:47:55;;;;;;;0.70;0.57;;;;;;;;;;5038313;28;20077;-70
2021/12/25 05:50:20;;;;;;;0.52;0.50;;;;;;;;;;5038324;28;20017;-70
2021/12/25 05:52:46;;;;;;;1.90;0.90;;;;;;;;;;5038221;28;20222;-70
2021/12/25 05:55:11;;;;;;;0.90;0.57;;;;;;;;;;5038105;28;20037;-70
2021/12/25 05:57:37;;;;;;;1.30;0.70;;;;;;;;;;5038223;28;20014;-70
2021/12/25 06:00:05;;;;;;;2.92;1.10;;;;;;;;;;5038400;28;20021;-70
2021/12/25 06:02:30;;;;;;;3.15;0.88;;;;;;;;;;5037754;28;20025;-71
2021/12/25 06:04:56;;;;;;;2.55;0.90;;;;;;;;;;5038259;28;20018;-70
2021/12/25 06:07:21;;;;;;;4.63;0.80;;;;;;;;;;5038286;28;20069;-69
2021/12/25 06:09:46;;;;;;;1.75;0.80;;;;;;;;;;5038247;28;20014;-70
2021/12/25 06:12:14;;;;;;;1.95;0.70;;;;;;;;;;5037934;28;20081;-70
2021/12/25 06:14:39;;;;;;;2.38;0.90;;;;;;;;;;5037810;28;20010;-70
2021/12/25 06:17:08;;;;;;;3.72;1.40;;;;;;;;;;5020952;28;20010;-70
2021/12/25 06:19:33;;;;;;;1.77;0.80;;;;;;;;;;5037711;28;20025;-70
2021/12/25 06:21:59;;;;;;;1.50;0.70;;;;;;;;;;5037880;28;20074;-69
2021/12/25 06:24:26;;;;;;;1.98;0.95;;;;;;;;;;5020869;28;20010;-70
2021/12/25 06:26:51;;;;;;;2.17;1.15;;;;;;;;;;5038033;28;20014;-69
2021/12/25 06:29:19;;;;;;;1.73;0.95;;;;;;;;;;5037646;28;20013;-70
2021/12/25 06:31:45;;;;;;;1.58;0.98;;;;;;;;;;5020007;28;20056;-70
2021/12/25 06:34:10;;;;;;;3.00;0.75;;;;;;;;;;5037959;28;20017;-70
2021/12/25 06:36:36;;;;;;;3.13;0.90;;;;;;;;;;5037920;28;20022;-69
2021/12/25 06:39:04;;;;;;;2.53;0.90;;;;;;;;;;5020447;28;20033;-69
2021/12/25 06:41:29;;;;;;;5.10;1.50;;;;;;;;;;5037383;28;20045;-70
2021/12/25 06:43:55;;;;;;;1.05;0.65;;;;;;;;;;5037450;28;20018;-70
2021/12/25 06:46:20;;;;;;;4.15;0.93;;;;;;;;;;5037351;28;20014;-70
2021/12/25 06:48:46;;;;;;;2.90;0.80;;;;;;;;;;5037229;28;20029;-70
2021/12/25 06:51:11;;;;;;;3.88;0.90;;;;;;;;;;5037629;28;20017;-69
2021/12/25 06:53:37;;;;;;;1.88;1.02;;;;;;;;;;5037691;28;20014;-70
2021/12/25 06:56:03;;;;;;;2.20;0.60;;;;;;;;;;5037633;28;20018;-70
2021/12/25 06:58:29;;;;;;;1.98;0.82;;;;;;;;;;5037433;28;20026;-70
2021/12/25 07:00:54;;;;;;;4.47;0.80;;;;;;;;;;5036764;28;20024;-70
2021/12/25 07:03:19;;;;;;;6.28;0.93;;;;;;;;;;5036742;28;20028;-70
2021/12/25 07:05:45;;;;;;;2.88;1.58;;;;;;;;;;5037254;28;20010;-70
2021/12/25 07:08:10;;;;;;;3.45;1.40;;;;;;;;;;5037153;28;20018;-70
2021/12/25 07:10:35;;;;;;;2.25;1.02;;;;;;;;;;5036784;28;20022;-70
2021/12/25 07:13:01;;;;;;;2.85;1.10;;;;;;;;;;5037574;28;20025;-70
2021/12/25 07:15:27;;;;;;;5.25;0.80;;;;;;;;;;5037452;28;20014;-70
2021/12/25 07:17:52;;;;;;;0.73;0.60;;;;;;;;;;5037391;28;20026;-70
2021/12/25 07:20:18;;;;;;;1.85;0.88;;;;;;;;;;5036795;28;20069;-69
2021/12/25 07:22:43;;;;;;;2.63;0.95;;;;;;;;;;5037286;28;20065;-70
2021/12/25 07:25:09;;;;;;;1.30;0.80;;;;;;;;;;5037105;28;20025;-70
2021/12/25 07:27:35;;;;;;;1.40;0.70;;;;;;;;;;5036861;28;20022;-69
2021/12/25 07:30:04;;;;;;;2.90;1.00;;;;;;;;;;5037129;28;20018;-70
2021/12/25 07:32:29;;;;;;;0.98;0.80;;;;;;;;;;5053468;28;20045;-70
2021/12/25 07:34:54;;;;;;;1.23;0.80;;;;;;;;;;5056831;28;20017;-69
2021/12/25 07:37:20;;;;;;;3.03;0.95;;;;;;;;;;5056861;28;20037;-70
2021/12/25 07:39:45;;;;;;;1.23;0.70;;;;;;;;;;5056556;28;20017;-69
2021/12/25 07:42:11;;;;;;;2.47;0.85;;;;;;;;;;5056769;28;20021;-70
2021/12/25 07:44:37;;;;;;;1.42;0.70;;;;;;;;;;5058400;28;20019;-70
2021/12/25 07:47:10;;;;;;;1.70;0.90;;;;;;;;;;5059926;28;20013;-70
2021/12/25 07:49:36;;;;;;;2.88;1.10;;;;;;;;;;5060513;28;20013;-70
2021/12/25 07:52:07;;;;;;;2.60;0.68;;;;;;;;;;5060621;28;20024;-70
2021/12/25 07:54:32;;;;;;;1.35;0.82;;;;;;;;;;5059432;28;20013;-70
2021/12/25 07:56:58;;;;;;;2.05;0.90;;;;;;;;;;5060254;28;20249;-70
2021/12/25 07:59:23;;;;;;;3.83;0.85;;;;;;;;;;5060203;28;20009;-70
2021/12/25 08:01:49;;;;;;;2.00;0.77;;;;;;;;;;5060281;28;20013;-70
2021/12/25 08:04:14;;;;;;;2.00;0.80;;;;;;;;;;5060299;28;20017;-70
2021/12/25 08:06:39;;;;;;;1.95;1.00;;;;;;;;;;5060231;28;20066;-70
2021/12/25 08:09:05;;;;;;;1.85;1.00;;;;;;;;;;5060575;28;20017;-70
2021/12/25 08:11:31;;;;;;;1.60;0.80;;;;;;;;;;5060485;28;20044;-70
2021/12/25 08:13:57;;;;;;;1.38;0.77;;;;;;;;;;5060209;28;20056;-69
2021/12/25 08:16:23;;;;;;;2.97;0.90;;;;;;;;;;5043191;28;20037;-70
2021/12/25 08:18:48;;;;;;;0.90;0.65;;;;;;;;;;5060305;28;20018;-70
2021/12/25 08:21:14;;;;;;;2.20;0.90;;;;;;;;;;5060189;28;20068;-70
2021/12/25 08:23:40;;;;;;;0.93;0.82;;;;;;;;;;5060179;28;20024;-70
2021/12/25 08:26:06;;;;;;;1.95;0.75;;;;;;;;;;5060219;28;20166;-70
2021/12/25 08:28:32;;;;;;;2.35;0.90;;;;;;;;;;5059657;28;20014;-69
2021/12/25 08:30:57;;;;;;;1.73;0.80;;;;;;;;;;5058753;28;20060;-70
2021/12/25 08:33:23;;;;;;;1.92;0.80;;;;;;;;;;5059707;28;20046;-70
2021/12/25 08:35:49;;;;;;;1.98;0.73;;;;;;;;;;5058856;28;20025;-69
2021/12/25 08:38:14;;;;;;;0.65;0.60;;;;;;;;;;5042205;28;20143;-70
2021/12/25 08:40:42;;;;;;;1.13;0.70;;;;;;;;;;5059572;28;20014;-70
2021/12/25 08:43:08;;;;;;;0.85;0.60;;;;;;;;;;5059077;28;20088;-70
2021/12/25 08:45:44;;;;;;;1.23;0.80;;;;;;;;;;5042158;28;20017;-70
2021/12/25 08:48:17;;;;;;;1.42;0.70;;;;;;;;;;5059285;28;20013;-70
2021/12/25 08:50:46;;;;;;;0.63;0.52;;;;;;;;;;5059237;28;20018;-70
2021/12/25 08:53:11;;;;;;;2.40;0.85;;;;;;;;;;5059085;28;20009;-69
2021/12/25 08:55:37;;;;;;;1.63;0.93;;;;;;;;;;5058716;28;20013;-70
2021/12/25 08:58:03;;;;;;;0.60;0.60;;;;;;;;;;5041862;28;20033;-69
2021/12/25 09:00:28;;;;;;;1.05;0.55;;;;;;;;;;5059359;28;20041;-70
2021/12/25 09:02:54;;;;;;;0.77;0.60;;;;;;;;;;5058930;28;20032;-70
2021/12/25 09:05:19;;;;;;;1.27;0.80;;;;;;;;;;5041594;28;20017;-70
2021/12/25 09:07:45;;;;;;;1.35;0.50;;;;;;;;;;5042084;28;20017;-70
2021/12/25 09:10:11;;;;;;;2.03;0.70;;;;;;;;;;5059146;28;20017;-70
2021/12/25 09:12:40;;;;;;;1.17;0.40;;;;;;;;;;5059198;28;20064;-70
2021/12/25 09:15:06;;;;;;;1.38;0.68;;;;;;;;;;5059137;28;20040;-69
2021/12/25 09:17:32;;;;;;;0.95;0.50;;;;;;;;;;5058587;28;20045;-69
2021/12/25 09:19:57;;;;;;;0.40;0.40;;;;;;;;;;5058586;28;20017;-70
2021/12/25 09:22:23;;;;;;;0.93;0.60;;;;;;;;;;5058818;28;20045;-70
2021/12/25 09:24:48;;;;;;;0.30;0.25;;;;;;;;;;5058725;28;20032;-70
2021/12/25 09:27:13;;;;;;;0.65;0.35;;;;;;;;;;5058323;28;20020;-69
2021/12/25 09:29:39;;;;;;;2.38;0.63;;;;;;;;;;5058484;28;20014;-70
2021/12/25 09:32:05;;;;;;;2.38;0.63;;;;;;;;;;5040974;28;20036;-70
2021/12/25 09:34:31;;;;;;;1.85;0.40;;;;;;;;;;5058170;28;20077;-69
2021/12/25 09:36:56;;;;;;;0.65;0.40;;;;;;;;;;5057860;28;20036;-70
2021/12/25 09:39:21;;;;;;;0.30;0.28;;;;;;;;;;5058347;28;20021;-70
2021/12/25 09:41:47;;;;;;;1.95;0.50;;;;;;;;;;5040708;28;20010;-70
2021/12/25 09:44:12;;;;;;;0.63;0.50;;;;;;;;;;5058109;28;20013;-70
2021/12/25 09:46:38;;;;;;;0.40;0.32;;;;;;;;;;5040810;28;20018;-70
2021/12/25 09:49:04;;;;;;;2.17;0.90;;;;;;;;;;5058226;28;20056;-69
2021/12/25 09:51:29;;;;;;;0.47;0.30;;;;;;;;;;5057582;28;20005;-69
2021/12/25 09:54:01;;;;;;;2.45;0.50;;;;;;;;;;5057497;28;20036;-70
2021/12/25 09:56:28;;;;;;;3.53;0.57;;;;;;;;;;5040689;28;20017;-69
2021/12/25 09:58:54;;;;;;;1.40;0.40;;;;;;;;;;5057888;28;20021;-69
2021/12/25 10:01:49;;;;;;;1.17;0.40;;;;;;;;;;5057858;28;20024;-69
2021/12/25 10:04:33;;;;;;;0.30;0.30;;;;;;;;;;5040718;28;20020;-70
2021/12/25 10:07:21;;;;;;;0.50;0.50;;;;;;;;;;5039861;28;20014;-69
2021/12/25 10:10:16;;;;;;;1.13;0.40;;;;;;;;;;5057717;28;20041;-70
2021/12/25 10:12:48;;;;;;;1.08;0.38;;;;;;;;;;5057604;28;20097;-69
2021/12/25 10:15:25;;;;;;;0.40;0.30;;;;;;;;;;5057609;28;20009;-70
2021/12/25 10:17:56;;;;;;;1.20;0.40;;;;;;;;;;5057633;28;20021;-70
2021/12/25 10:20:24;;;;;;;0.40;0.40;;;;;;;;;;5040265;28;20025;-70
2021/12/25 10:22:52;;;;;;;1.33;0.40;;;;;;;;;;5057333;28;20029;-70
2021/12/25 10:25:18;;;;;;;0.88;0.25;;;;;;;;;;5057414;28;20155;-70
2021/12/25 10:27:49;;;;;;;0.73;0.28;;;;;;;;;;5057262;28;20013;-69
2021/12/25 10:30:15;;;;;;;0.22;0.22;;;;;;;;;;5057183;28;20041;-70
2021/12/25 10:32:40;;;;;;;1.20;0.50;;;;;;;;;;5057070;28;20048;-70
2021/12/25 10:35:14;;;;;;;0.95;0.35;;;;;;;;;;5057402;28;20028;-70
2021/12/25 10:37:41;;;;;;;1.10;0.45;;;;;;;;;;5040412;28;20022;-70
2021/12/25 10:40:28;;;;;;;0.95;0.55;;;;;;;;;;5057024;28;20018;-69
2021/12/25 10:42:59;;;;;;;1.95;0.50;;;;;;;;;;5057231;28;20029;-70
2021/12/25 10:45:28;;;;;;;0.43;0.35;;;;;;;;;;5057226;28;20041;-70
2021/12/25 10:48:04;;;;;;;2.60;0.55;;;;;;;;;;5057194;28;20085;-70
2021/12/25 10:50:35;;;;;;;1.02;0.47;;;;;;;;;;5057151;28;20017;-70
2021/12/25 10:53:04;;;;;;;1.52;0.60;;;;;;;;;;5057333;28;20032;-70
2021/12/25 10:55:30;;;;;;;1.33;0.40;;;;;;;;;;5056986;28;20009;-69
2021/12/25 10:57:59;;;;;;;1.00;0.52;;;;;;;;;;5039892;28;20033;-71
2021/12/25 11:00:32;;;;;;;1.67;0.75;;;;;;;;;;5056933;28;20009;-70
2021/12/25 11:03:00;;;;;;;2.15;0.57;;;;;;;;;;5056621;28;20028;-70
2021/12/25 11:05:33;;;;;;;2.25;0.98;;;;;;;;;;5057078;28;20010;-69
2021/12/25 11:08:17;;;;;;;1.35;0.50;;;;;;;;;;5057010;28;20026;-69
2021/12/25 11:10:50;;;;;;;1.40;0.55;;;;;;;;;;5039740;28;20024;-69
2021/12/25 11:13:41;;;;;;;3.00;0.50;;;;;;;;;;5040105;28;20017;-70
2021/12/25 11:16:08;;;;;;;1.92;0.47;;;;;;;;;;5056740;28;20254;-70
2021/12/25 11:18:53;;;;;;;0.38;0.30;;;;;;;;;;5059647;28;20010;-69
2021/12/25 11:21:19;;;;;;;0.63;0.40;;;;;;;;;;5061095;28;20200;-70
2021/12/25 11:23:46;;;;;;;1.38;0.40;;;;;;;;;;5043486;28;20098;-70
2021/12/25 11:26:13;;;;;;;2.70;0.40;;;;;;;;;;5043419;28;20005;-70
2021/12/25 11:28:41;;;;;;;0.60;0.40;;;;;;;;;;5060736;28;20025;-69
2021/12/25 11:31:06;;;;;;;0.60;0.43;;;;;;;;;;5043256;28;20036;-70
2021/12/25 11:33:32;;;;;;;1.25;0.50;;;;;;;;;;5043244;28;20029;-70
2021/12/25 11:35:57;;;;;;;0.80;0.40;;;;;;;;;;5060464;28;20014;-70
2021/12/25 11:38:22;;;;;;;0.90;0.50;;;;;;;;;;5060500;28;20041;-70
2021/12/25 11:40:52;;;;;;;0.57;0.30;;;;;;;;;;5059541;28;20029;-69
2021/12/25 11:43:40;;;;;;;0.35;0.35;;;;;;;;;;5043095;28;20093;-70
2021/12/25 11:46:07;;;;;;;1.48;0.50;;;;;;;;;;5060200;28;20006;-69
2021/12/25 11:48:34;;;;;;;1.88;0.60;;;;;;;;;;5043286;28;20014;-71
2021/12/25 11:50:59;;;;;;;0.85;0.55;;;;;;;;;;5060299;28;20024;-70
2021/12/25 11:56:45;;;;;;;1.08;0.40;;;;;;;;;;5047028;28;20026;-71
2021/12/25 11:59:19;;;;;;;1.90;0.70;;;;;;;;;;5060216;28;20006;-70
2021/12/25 12:01:48;;;;;;;0.63;0.40;;;;;;;;;;5042704;28;20035;-71
2021/12/25 12:04:14;;;;;;;1.08;0.30;;;;;;;;;;5042934;28;20108;-70
2021/12/25 12:09:16;;;;;;;1.52;0.50;;;;;;;;;;5059728;28;20021;-70
2021/12/25 12:11:44;;;;;;;3.90;0.77;;;;;;;;;;5042449;28;20001;-70
2021/12/25 12:14:21;;;;;;;3.13;0.70;;;;;;;;;;5042301;28;20032;-69
2021/12/25 12:16:53;;;;;;;2.25;0.90;;;;;;;;;;5059855;28;20044;-70
2021/12/25 12:19:37;;;;;;;1.38;0.43;;;;;;;;;;5059755;28;20005;-70
2021/12/25 12:28:16;;;;;;;0.95;0.45;;;;;;;;;;5018656;28;20086;-70
2021/12/25 12:30:48;;;;;;;1.83;0.77;;;;;;;;;;5050296;28;20032;-70
2021/12/25 12:33:17;;;;;;;1.77;0.50;;;;;;;;;;5059528;28;20013;-69
2021/12/25 12:35:45;;;;;;;0.35;0.30;;;;;;;;;;5042260;28;20073;-70
2021/12/25 12:38:42;;;;;;;2.03;0.60;;;;;;;;;;5059556;28;20021;-70
2021/12/25 12:41:13;;;;;;;2.35;0.43;;;;;;;;;;5059333;28;20065;-70
2021/12/25 12:43:50;;;;;;;1.25;0.50;;;;;;;;;;5059180;28;20017;-70
2021/12/25 12:46:16;;;;;;;5.57;0.80;;;;;;;;;;5041826;28;20033;-70
2021/12/25 12:49:01;;;;;;;1.20;0.40;;;;;;;;;;5059341;28;20036;-70
2021/12/25 12:51:27;;;;;;;1.33;0.40;;;;;;;;;;5059105;28;20077;-70
2021/12/25 12:53:52;;;;;;;1.02;0.52;;;;;;;;;;5058938;28;20020;-70
2021/12/25 12:56:21;;;;;;;0.85;0.40;;;;;;;;;;5059213;28;20005;-70
2021/12/25 12:58:55;;;;;;;1.52;0.55;;;;;;;;;;5058751;28;20028;-70
2021/12/25 13:01:21;;;;;;;1.65;0.55;;;;;;;;;;5041689;28;20012;-69
2021/12/25 13:03:47;;;;;;;2.50;0.47;;;;;;;;;;5058681;28;20318;-69
2021/12/25 13:06:15;;;;;;;2.00;0.70;;;;;;;;;;5058982;28;20012;-70
2021/12/25 13:08:43;;;;;;;0.60;0.43;;;;;;;;;;5041633;28;20045;-70
2021/12/25 13:11:23;;;;;;;1.05;0.50;;;;;;;;;;5058615;28;20013;-70
2021/12/25 13:13:59;;;;;;;3.75;0.75;;;;;;;;;;5058859;28;20017;-71
2021/12/25 13:16:45;;;;;;;0.40;0.40;;;;;;;;;;5041476;28;20034;-70
2021/12/25 13:19:11;;;;;;;1.73;0.80;;;;;;;;;;5058123;28;20023;-70
2021/12/25 13:21:37;;;;;;;1.02;0.52;;;;;;;;;;5041269;28;20018;-71
2021/12/25 13:24:09;;;;;;;1.77;0.47;;;;;;;;;;5058470;28;20021;-71
2021/12/25 13:26:38;;;;;;;5.15;0.73;;;;;;;;;;5058310;28;20036;-70
2021/12/25 13:29:10;;;;;;;1.52;0.60;;;;;;;;;;5041283;28;20014;-70
2021/12/25 13:31:38;;;;;;;1.20;0.60;;;;;;;;;;5040915;28;20040;-71
2021/12/25 13:34:11;;;;;;;1.92;0.82;;;;;;;;;;5058251;28;20031;-70
2021/12/25 13:36:38;;;;;;;1.13;0.50;;;;;;;;;;5058287;28;20048;-70
2021/12/25 13:39:06;;;;;;;3.03;0.60;;;;;;;;;;5058116;28;20021;-70
2021/12/25 13:41:41;;;;;;;1.25;0.77;;;;;;;;;;5056751;28;20080;-70
2021/12/25 13:44:10;;;;;;;2.22;0.70;;;;;;;;;;5057700;28;20080;-73
2021/12/25 13:46:45;;;;;;;2.47;0.70;;;;;;;;;;5040728;28;20010;-70
2021/12/25 13:49:46;;;;;;;1.58;0.50;;;;;;;;;;5057854;28;20044;-71
2021/12/25 13:52:24;;;;;;;1.23;0.77;;;;;;;;;;5058110;28;20018;-71
2021/12/25 13:55:15;;;;;;;1.23;0.50;;;;;;;;;;5058102;28;20032;-70
2021/12/25 13:58:04;;;;;;;2.20;1.00;;;;;;;;;;5057911;28;20021;-70
2021/12/25 14:00:35;;;;;;;1.23;0.57;;;;;;;;;;5057320;28;20035;-70
2021/12/25 14:03:07;;;;;;;1.70;0.77;;;;;;;;;;5057477;28;20017;-70
2021/12/25 14:05:35;;;;;;;1.60;0.47;;;;;;;;;;5040494;28;20272;-70
2021/12/25 14:08:00;;;;;;;2.13;1.17;;;;;;;;;;5040686;28;20014;-70
2021/12/25 14:10:29;;;;;;;1.15;0.75;;;;;;;;;;5057645;28;20032;-70
2021/12/25 14:12:59;;;;;;;1.90;0.65;;;;;;;;;;5057483;28;20025;-70
2021/12/25 14:15:28;;;;;;;1.75;0.52;;;;;;;;;;5040379;28;20020;-71
2021/12/25 14:17:56;;;;;;;2.63;0.85;;;;;;;;;;5057684;28;20028;-70
2021/12/25 14:20:28;;;;;;;1.33;0.73;;;;;;;;;;5057601;28;20009;-70
2021/12/25 14:23:05;;;;;;;1.83;0.73;;;;;;;;;;5040335;28;20017;-70
2021/12/25 14:25:34;;;;;;;4.20;0.90;;;;;;;;;;5057473;28;20018;-70
2021/12/25 14:28:09;;;;;;;2.33;0.98;;;;;;;;;;5040306;28;20047;-70
2021/12/25 14:30:46;;;;;;;4.25;0.98;;;;;;;;;;5057370;28;20073;-71
2021/12/25 14:33:18;;;;;;;2.65;0.80;;;;;;;;;;5056816;28;20061;-70
2021/12/25 14:35:44;;;;;;;2.25;0.70;;;;;;;;;;5056865;28;20051;-70
2021/12/25 14:38:10;;;;;;;3.35;0.75;;;;;;;;;;5056392;28;20024;-70
2021/12/25 14:40:45;;;;;;;2.40;0.80;;;;;;;;;;5057473;28;20009;-70
2021/12/25 14:43:12;;;;;;;2.00;0.70;;;;;;;;;;5057117;28;20013;-70
2021/12/25 14:45:48;;;;;;;1.35;0.80;;;;;;;;;;5057372;28;20058;-70
2021/12/25 14:48:14;;;;;;;3.05;0.70;;;;;;;;;;5057350;28;20024;-71
2021/12/25 14:50:40;;;;;;;4.30;1.00;;;;;;;;;;5057325;28;20029;-70
2021/12/25 14:53:16;;;;;;;4.45;1.42;;;;;;;;;;5059250;28;20017;-70
2021/12/25 14:55:45;;;;;;;1.17;0.70;;;;;;;;;;5044098;28;20031;-70
2021/12/25 14:58:12;;;;;;;1.92;0.75;;;;;;;;;;5061327;28;20081;-70
2021/12/25 15:00:38;;;;;;;6.22;1.13;;;;;;;;;;5061106;28;20021;-70
2021/12/25 15:03:16;;;;;;;1.90;0.88;;;;;;;;;;5061305;28;20014;-70
2021/12/25 15:05:44;;;;;;;6.07;1.17;;;;;;;;;;5061266;28;20031;-70
2021/12/25 15:08:36;;;;;;;0.93;0.70;;;;;;;;;;5061060;28;20073;-70
2021/12/25 15:11:16;;;;;;;2.38;0.75;;;;;;;;;;5061200;28;20028;-69
2021/12/25 15:13:56;;;;;;;5.38;0.95;;;;;;;;;;5061304;28;20044;-70
2021/12/25 15:16:48;;;;;;;1.67;0.63;;;;;;;;;;5061095;28;20002;-70
2021/12/25 15:19:27;;;;;;;2.53;0.75;;;;;;;;;;5061180;28;20022;-70
2021/12/25 15:21:55;;;;;;;2.83;1.00;;;;;;;;;;5043784;28;20005;-70
2021/12/25 15:24:22;;;;;;;0.80;0.60;;;;;;;;;;5043757;28;20020;-70
2021/12/25 15:26:50;;;;;;;2.00;1.02;;;;;;;;;;5060751;28;20018;-70
2021/12/25 15:29:16;;;;;;;2.30;0.90;;;;;;;;;;5060786;28;20020;-70
2021/12/25 15:31:44;;;;;;;2.47;0.63;;;;;;;;;;5043327;28;20081;-70
2021/12/25 15:34:15;;;;;;;1.25;0.70;;;;;;;;;;5043405;28;20094;-71
2021/12/25 15:36:43;;;;;;;4.15;1.27;;;;;;;;;;5060619;28;20061;-70
2021/12/25 15:39:24;;;;;;;3.33;1.95;;;;;;;;;;5060319;28;20040;-70
2021/12/25 15:41:51;;;;;;;2.42;0.80;;;;;;;;;;5060596;28;20009;-70
2021/12/25 15:44:19;;;;;;;0.77;0.55;;;;;;;;;;5060335;28;20033;-70
2021/12/25 15:46:46;;;;;;;3.65;1.35;;;;;;;;;;5043355;28;20224;-70
2021/12/25 15:49:12;;;;;;;2.55;1.13;;;;;;;;;;5060469;28;20014;-70
2021/12/25 15:51:37;;;;;;;2.20;0.82;;;;;;;;;;5043026;28;20035;-70
2021/12/25 15:54:03;;;;;;;5.65;1.13;;;;;;;;;;5060248;28;20005;-70
2021/12/25 15:56:30;;;;;;;2.53;1.00;;;;;;;;;;5060163;28;20001;-70
2021/12/25 15:58:55;;;;;;;1.88;0.90;;;;;;;;;;5060173;28;20009;-70
2021/12/25 16:01:21;;;;;;;1.60;0.88;;;;;;;;;;5060239;28;20055;-70
2021/12/25 16:03:49;;;;;;;1.88;0.73;;;;;;;;;;5059380;28;20086;-70
2021/12/25 16:06:14;;;;;;;2.58;1.02;;;;;;;;;;5060035;28;20033;-70
2021/12/25 16:08:40;;;;;;;2.55;0.80;;;;;;;;;;5060182;28;20001;-70
2021/12/25 16:11:07;;;;;;;3.03;1.05;;;;;;;;;;5041656;28;20415;-70
2021/12/25 16:13:32;;;;;;;1.65;0.95;;;;;;;;;;5059982;28;20075;-70
2021/12/25 16:15:58;;;;;;;4.88;1.45;;;;;;;;;;5059913;28;20029;-70
2021/12/25 16:18:25;;;;;;;2.13;0.90;;;;;;;;;;5059668;28;20012;-70
2021/12/25 16:20:53;;;;;;;4.05;0.88;;;;;;;;;;5042311;28;20044;-70